Time;durP1;ratioP1;P1;durP2;ratioP2;P2;SDS_P1;SDS_P2;PMS_P1;PMS_P2;Temp;Humidity;BMP_temperature;BMP_pressure;BME280_temperature;BME280_humidity;BME280_pressure;Samples;Min_cycle;Max_cycle;Signal;HPM_P1;HPM_P2
2021/09/28 00:00:37;;;;;;;5.97;3.60;;;;;;;9.65;79.56;101355.51;1718486;80;25787;-77
2021/09/28 00:03:05;;;;;;;6.33;4.03;;;;;;;9.65;79.88;101356.35;1704820;81;25803;-77
2021/09/28 00:05:33;;;;;;;5.08;3.92;;;;;;;9.67;79.95;101352.17;1739170;81;27554;-77
2021/09/28 00:08:00;;;;;;;7.33;4.40;;;;;;;9.71;80.00;101360.23;1701225;80;26361;-77
2021/09/28 00:10:27;;;;;;;5.40;3.77;;;;;;;9.69;80.10;101360.38;1700410;81;26623;-77
2021/09/28 00:12:54;;;;;;;7.28;3.67;;;;;;;9.69;80.07;101365.73;1703481;81;25809;-77
2021/09/28 00:15:21;;;;;;;6.83;4.12;;;;;;;9.66;79.87;101362.05;1727960;80;25852;-77
2021/09/28 00:17:48;;;;;;;5.78;3.92;;;;;;;9.65;80.11;101363.04;1722154;81;27526;-77
2021/09/28 00:20:15;;;;;;;6.12;4.30;;;;;;;9.64;80.12;101359.20;1704888;82;26143;-77
2021/09/28 00:22:42;;;;;;;11.93;4.50;;;;;;;9.64;80.08;101361.88;1679823;81;25781;-77
2021/09/28 00:25:10;;;;;;;6.33;4.05;;;;;;;9.65;80.28;101359.52;1740467;81;25914;-77
2021/09/28 00:27:37;;;;;;;5.45;4.03;;;;;;;9.65;80.24;101359.52;1684659;81;25355;-77
2021/09/28 00:30:06;;;;;;;6.78;4.10;;;;;;;9.64;80.25;101352.52;1677358;81;27646;-77
2021/09/28 00:32:33;;;;;;;5.83;4.12;;;;;;;9.62;80.30;101352.69;1699210;80;25768;-77
2021/09/28 00:35:00;;;;;;;6.80;4.25;;;;;;;9.61;80.28;101362.19;1731694;81;25600;-77
2021/09/28 00:37:27;;;;;;;9.00;4.33;;;;;;;9.57;80.45;101357.67;1702915;81;25886;-77
2021/09/28 00:39:54;;;;;;;4.35;3.58;;;;;;;9.57;80.38;101355.48;1696012;83;25848;-77
2021/09/28 00:42:21;;;;;;;4.60;3.58;;;;;;;9.55;80.44;101355.66;1726403;81;28056;-77
2021/09/28 00:44:49;;;;;;;5.60;4.30;;;;;;;9.54;80.59;101353.16;1741861;80;25848;-78
2021/09/28 00:47:17;;;;;;;6.17;3.40;;;;;;;9.47;80.48;101345.43;1710610;81;25802;-77
2021/09/28 00:49:47;;;;;;;4.45;3.67;;;;;;;9.45;80.61;101348.77;1692852;80;26532;-77
2021/09/28 00:52:18;;;;;;;5.70;4.75;;;;;;;9.43;80.62;101344.08;1694588;82;25924;-77
2021/09/28 00:54:47;;;;;;;6.45;3.90;;;;;;;9.38;80.63;101345.90;1737717;82;27612;-77
2021/09/28 00:57:16;;;;;;;5.40;3.95;;;;;;;9.35;80.77;101347.55;1706510;81;25970;-77
2021/09/28 00:59:44;;;;;;;11.95;3.92;;;;;;;9.36;80.93;101350.57;1680075;81;25875;-77
2021/09/28 01:02:13;;;;;;;8.08;4.30;;;;;;;9.33;80.94;101345.04;1707299;81;25713;-77
2021/09/28 01:04:41;;;;;;;6.55;3.85;;;;;;;9.31;80.94;101343.03;1708961;81;25875;-77
2021/09/28 01:07:10;;;;;;;9.83;4.10;;;;;;;9.28;80.93;101347.87;1736295;81;27625;-77
2021/09/28 01:09:39;;;;;;;5.25;3.52;;;;;;;9.26;80.99;101342.66;1683622;81;26621;-77
2021/09/28 01:12:09;;;;;;;5.58;3.45;;;;;;;9.26;80.94;101343.15;1708187;81;25958;-77
2021/09/28 01:14:38;;;;;;;5.12;3.72;;;;;;;9.23;81.00;101343.00;1713450;81;26525;-77
2021/09/28 01:17:18;;;;;;;5.58;3.55;;;;;;;9.21;80.88;101337.47;1747408;80;26251;-76
2021/09/28 01:19:45;;;;;;;6.73;3.80;;;;;;;9.18;80.96;101343.96;1678949;81;27335;-77
2021/09/28 01:22:15;;;;;;;5.60;4.03;;;;;;;9.17;81.11;101346.28;1694469;80;25801;-77
2021/09/28 01:24:46;;;;;;;9.58;3.85;;;;;;;9.18;81.08;101351.14;1711120;81;25896;-77
2021/09/28 01:27:15;;;;;;;8.68;4.10;;;;;;;9.13;80.89;101348.13;1751472;80;25923;-77
2021/09/28 01:29:42;;;;;;;7.67;3.58;;;;;;;9.10;80.99;101343.08;1708876;80;25878;-77
2021/09/28 01:32:09;;;;;;;5.67;3.92;;;;;;;9.11;81.15;101343.44;1695239;80;28141;-77
2021/09/28 01:34:36;;;;;;;6.37;3.87;;;;;;;9.10;81.15;101345.27;1713784;81;25825;-77
2021/09/28 01:37:04;;;;;;;5.37;3.52;;;;;;;9.11;81.00;101347.45;1710664;81;25913;-77
2021/09/28 01:39:31;;;;;;;6.22;3.52;;;;;;;9.11;81.03;101345.59;1663646;81;26426;-77
2021/09/28 01:41:58;;;;;;;6.72;4.00;;;;;;;9.10;81.02;101343.93;1727051;80;25951;-77
2021/09/28 01:44:25;;;;;;;5.25;3.92;;;;;;;9.06;81.09;101333.22;1710694;82;28141;-77
2021/09/28 01:46:52;;;;;;;6.55;4.10;;;;;;;9.04;81.18;101339.23;1727079;82;25922;-77
2021/09/28 01:49:20;;;;;;;4.92;3.42;;;;;;;9.03;81.23;101341.55;1677508;82;25813;-77
2021/09/28 01:51:48;;;;;;;6.90;3.75;;;;;;;9.01;81.11;101345.37;1671541;82;26395;-77
2021/09/28 01:54:15;;;;;;;5.08;3.90;;;;;;;8.99;81.18;101338.85;1711561;82;26690;-77
2021/09/28 01:56:42;;;;;;;6.60;3.90;;;;;;;8.96;81.19;101336.48;1731657;82;27486;-76
2021/09/28 01:59:10;;;;;;;3.60;3.30;;;;;;;8.96;81.20;101335.15;1681352;81;25456;-77
2021/09/28 02:01:38;;;;;;;7.62;3.50;;;;;;;8.92;81.02;101339.63;1685375;83;25840;-77
2021/09/28 02:04:05;;;;;;;4.50;3.80;;;;;;;8.88;81.05;101347.13;1704105;83;26455;-76
2021/09/28 02:06:37;;;;;;;6.45;3.52;;;;;;;8.86;80.95;101346.45;1733322;81;26271;-76
2021/09/28 02:09:03;;;;;;;4.28;3.72;;;;;;;8.83;80.83;101345.42;1653140;81;28233;-77
2021/09/28 02:11:30;;;;;;;4.25;3.50;;;;;;;8.78;80.72;101349.08;1703480;81;26611;-77
2021/09/28 02:13:58;;;;;;;5.83;3.70;;;;;;;8.76;80.77;101348.40;1724728;80;25921;-77
2021/09/28 02:16:25;;;;;;;4.15;3.45;;;;;;;8.74;80.70;101345.54;1772558;80;26416;-77
2021/09/28 02:18:52;;;;;;;5.22;4.20;;;;;;;8.70;80.72;101342.84;1709884;81;25830;-77
2021/09/28 02:21:19;;;;;;;6.40;3.55;;;;;;;8.63;80.84;101337.78;1705154;81;27479;-77
2021/09/28 02:23:46;;;;;;;4.08;3.67;;;;;;;8.55;80.91;101340.72;1703746;80;25791;-77
2021/09/28 02:26:14;;;;;;;4.30;3.47;;;;;;;8.46;81.03;101336.34;1737172;81;26077;-77
2021/09/28 02:28:42;;;;;;;6.15;4.12;;;;;;;8.38;81.18;101342.92;1694167;83;26396;-77
2021/09/28 02:31:09;;;;;;;5.42;4.53;;;;;;;8.33;81.35;101345.72;1693135;81;25966;-77
2021/09/28 02:33:36;;;;;;;7.40;3.87;;;;;;;8.27;81.44;101342.34;1699354;81;28977;-77
2021/09/28 02:36:03;;;;;;;5.75;4.15;;;;;;;8.24;81.60;101343.45;1762726;80;25793;-77
2021/09/28 02:38:30;;;;;;;4.10;3.70;;;;;;;8.21;81.72;101339.73;1710417;81;25898;-77
2021/09/28 02:40:57;;;;;;;5.42;3.45;;;;;;;8.19;81.85;101341.73;1716056;80;26635;-77
2021/09/28 02:43:24;;;;;;;8.28;3.87;;;;;;;8.13;81.79;101333.00;1691117;81;26068;-77
2021/09/28 02:45:51;;;;;;;9.35;3.83;;;;;;;8.09;82.05;101329.45;1731972;81;27522;-77
2021/09/28 02:48:18;;;;;;;5.20;3.77;;;;;;;8.08;82.17;101333.13;1687722;81;25963;-77
2021/09/28 02:50:46;;;;;;;5.83;3.98;;;;;;;8.05;82.17;101330.75;1702844;81;25841;-77
2021/09/28 02:53:13;;;;;;;7.22;3.98;;;;;;;8.06;82.36;101331.11;1733596;80;25836;-77
2021/09/28 02:55:41;;;;;;;5.12;3.62;;;;;;;8.06;82.34;101331.93;1729286;81;25974;-77
2021/09/28 02:58:08;;;;;;;5.87;4.10;;;;;;;8.07;82.39;101334.11;1713368;80;28200;-77
2021/09/28 03:00:35;;;;;;;5.17;4.15;;;;;;;8.08;82.37;101327.31;1713721;81;25773;-77
2021/09/28 03:03:02;;;;;;;6.47;4.47;;;;;;;8.06;82.39;101330.59;1716728;81;25346;-77
2021/09/28 03:05:30;;;;;;;6.10;4.12;;;;;;;8.04;82.33;101327.23;1715340;81;26482;-77
2021/09/28 03:07:57;;;;;;;8.43;4.58;;;;;;;8.02;82.35;101331.89;1677622;82;25866;-77
2021/09/28 03:10:24;;;;;;;5.80;3.90;;;;;;;8.01;82.51;101333.39;1692397;81;27630;-77
2021/09/28 03:12:51;;;;;;;6.28;4.10;;;;;;;8.01;82.51;101330.72;1748519;80;25819;-77
2021/09/28 03:15:18;;;;;;;5.85;3.95;;;;;;;8.00;82.37;101330.40;1739167;80;25975;-77
2021/09/28 03:17:45;;;;;;;6.25;4.05;;;;;;;7.96;82.46;101328.50;1713197;80;26478;-77
2021/09/28 03:20:13;;;;;;;5.85;4.67;;;;;;;7.93;82.41;101329.31;1727612;80;25906;-77
2021/09/28 03:22:40;;;;;;;5.65;4.30;;;;;;;7.91;82.46;101335.30;1735917;81;27593;-77
2021/09/28 03:25:08;;;;;;;5.62;3.67;;;;;;;7.92;82.53;101326.30;1740223;80;25808;-77
2021/09/28 03:27:35;;;;;;;6.12;4.50;;;;;;;7.90;82.38;101332.27;1709088;81;26632;-77
2021/09/28 03:30:05;;;;;;;8.13;4.22;;;;;;;7.88;82.48;101339.11;1715486;80;25861;-77
2021/09/28 03:32:32;;;;;;;6.58;3.92;;;;;;;7.88;82.57;101339.59;1699227;81;26015;-77
2021/09/28 03:34:59;;;;;;;6.10;4.03;;;;;;;7.88;82.53;101345.77;1725186;81;28115;-77
2021/09/28 03:37:26;;;;;;;5.15;3.52;;;;;;;7.87;82.61;101336.08;1695741;81;26056;-77
2021/09/28 03:39:53;;;;;;;5.72;3.62;;;;;;;7.88;82.50;101347.59;1712492;80;26543;-77
2021/09/28 03:42:20;;;;;;;7.70;4.28;;;;;;;7.82;82.27;101334.38;1713510;81;25917;-77
2021/09/28 03:44:47;;;;;;;7.17;4.20;;;;;;;7.79;82.39;101342.67;1690668;81;26598;-77
2021/09/28 03:47:14;;;;;;;5.25;3.83;;;;;;;7.78;82.51;101334.34;1691351;82;27678;-77
2021/09/28 03:49:41;;;;;;;5.97;4.47;;;;;;;7.77;82.59;101341.98;1710921;81;25863;-77
2021/09/28 03:52:08;;;;;;;5.60;3.90;;;;;;;7.72;82.34;101340.25;1718954;80;26480;-77
2021/09/28 03:54:35;;;;;;;5.08;4.03;;;;;;;7.71;82.64;101342.59;1739514;81;26399;-77
2021/09/28 03:57:02;;;;;;;5.03;4.03;;;;;;;7.67;82.48;101338.55;1672912;81;26526;-77
2021/09/28 03:59:29;;;;;;;8.43;4.58;;;;;;;7.61;82.61;101337.82;1699765;82;27482;-77
2021/09/28 04:01:56;;;;;;;7.25;4.05;;;;;;;7.56;82.59;101343.59;1702456;82;26272;-77
2021/09/28 04:04:24;;;;;;;5.58;3.85;;;;;;;7.53;82.62;101346.55;1703599;82;26007;-77
2021/09/28 04:06:51;;;;;;;6.87;4.70;;;;;;;7.51;82.70;101349.02;1738356;79;26041;-77
2021/09/28 04:09:18;;;;;;;5.83;4.40;;;;;;;7.47;82.92;101347.64;1716096;81;25883;-77
2021/09/28 04:11:45;;;;;;;6.35;4.00;;;;;;;7.44;82.90;101354.09;1740118;79;27591;-77
2021/09/28 04:14:16;;;;;;;8.70;4.45;;;;;;;7.42;83.01;101354.73;1732725;80;26560;-77
2021/09/28 04:16:43;;;;;;;8.88;4.42;;;;;;;7.42;83.11;101354.73;1733073;79;32554;-77
2021/09/28 04:19:10;;;;;;;6.92;4.08;;;;;;;7.42;83.14;101356.07;1718332;80;25840;-77
2021/09/28 04:21:38;;;;;;;4.85;4.15;;;;;;;7.42;83.21;101353.41;1717111;79;25941;-77
2021/09/28 04:24:06;;;;;;;6.45;4.60;;;;;;;7.44;83.27;101360.76;1734829;79;27531;-77
2021/09/28 04:26:34;;;;;;;7.75;4.12;;;;;;;7.43;82.98;101360.43;1688080;84;25961;-77
2021/09/28 04:29:01;;;;;;;5.80;4.37;;;;;;;7.42;82.97;101361.92;1716381;81;26019;-77
2021/09/28 04:31:28;;;;;;;5.42;4.05;;;;;;;7.41;82.64;101366.41;1688336;81;26591;-77
2021/09/28 04:33:55;;;;;;;6.45;3.92;;;;;;;7.38;82.56;101364.02;1690418;81;26544;-77
2021/09/28 04:36:28;;;;;;;4.90;3.90;;;;;;;7.38;82.44;101365.84;1719221;82;27364;-77
2021/09/28 04:38:55;;;;;;;6.83;4.92;;;;;;;7.36;82.87;101366.48;1700966;81;26695;-77
2021/09/28 04:41:22;;;;;;;5.30;3.92;;;;;;;7.36;82.99;101367.81;1690020;81;25873;-77
2021/09/28 04:43:50;;;;;;;8.25;4.53;;;;;;;7.36;83.08;101373.99;1711865;79;26571;-77
2021/09/28 04:46:17;;;;;;;6.95;4.47;;;;;;;7.35;83.02;101366.16;1767453;79;26007;-77
2021/09/28 04:48:45;;;;;;;5.22;4.30;;;;;;;7.34;83.08;101371.97;1740755;79;28230;-77
2021/09/28 04:51:12;;;;;;;6.97;4.20;;;;;;;7.32;83.19;101372.61;1687864;81;26609;-77
2021/09/28 04:53:40;;;;;;;6.58;4.53;;;;;;;7.32;83.19;101375.77;1684099;81;25820;-77
2021/09/28 04:56:07;;;;;;;5.42;4.37;;;;;;;7.32;83.36;101373.95;1745470;81;26532;-77
2021/09/28 04:58:34;;;;;;;8.10;5.03;;;;;;;7.33;83.40;101376.97;1689765;82;25413;-77
2021/09/28 05:01:01;;;;;;;7.28;4.70;;;;;;;7.34;83.54;101379.97;1685231;83;28187;-77
2021/09/28 05:03:28;;;;;;;8.33;4.62;;;;;;;7.35;83.66;101384.32;1685063;82;26823;-77
2021/09/28 05:05:55;;;;;;;7.97;4.97;;;;;;;7.36;83.76;101387.31;1728142;82;26483;-77
2021/09/28 05:08:22;;;;;;;9.08;5.00;;;;;;;7.37;83.88;101389.50;1694052;80;26545;-77
2021/09/28 05:10:49;;;;;;;6.30;4.10;;;;;;;7.34;84.04;101386.63;1679767;81;25770;-77
2021/09/28 05:13:16;;;;;;;7.42;4.67;;;;;;;7.36;84.17;101393.98;1676898;82;27559;-77
2021/09/28 05:15:45;;;;;;;6.15;4.12;;;;;;;7.37;84.32;101398.83;1701980;82;26017;-77
2021/09/28 05:18:14;;;;;;;6.00;4.67;;;;;;;7.36;84.34;101395.80;1685947;82;25783;-77
2021/09/28 05:20:41;;;;;;;7.97;5.08;;;;;;;7.38;84.39;101405.81;1708159;82;26411;-77
2021/09/28 05:23:09;;;;;;;6.00;4.47;;;;;;;7.40;84.53;101400.70;1682269;82;26677;-77
2021/09/28 05:25:36;;;;;;;10.60;5.00;;;;;;;7.41;84.47;101403.72;1730549;82;27605;-77
2021/09/28 05:28:03;;;;;;;7.72;4.62;;;;;;;7.40;84.60;101410.54;1685178;82;26205;-76
2021/09/28 05:30:30;;;;;;;7.58;4.70;;;;;;;7.42;84.73;101412.56;1699146;82;25783;-77
2021/09/28 05:32:57;;;;;;;7.78;4.30;;;;;;;7.43;85.20;101411.56;1655888;82;26250;-77
2021/09/28 05:35:24;;;;;;;8.58;4.87;;;;;;;7.50;85.53;101424.66;1738727;80;25804;-77
2021/09/28 05:37:52;;;;;;;9.48;4.72;;;;;;;7.55;85.50;101432.55;1664218;82;27469;-77
2021/09/28 05:40:20;;;;;;;8.65;4.72;;;;;;;7.62;85.62;101436.31;1672337;82;25773;-77
2021/09/28 05:42:47;;;;;;;7.67;4.60;;;;;;;7.70;85.97;101442.23;1683756;81;26170;-77
2021/09/28 05:45:14;;;;;;;5.65;4.35;;;;;;;7.77;85.94;101441.50;1712766;81;26583;-77
2021/09/28 05:47:41;;;;;;;7.65;4.87;;;;;;;7.82;85.61;101442.88;1699010;83;25933;-77
2021/09/28 05:50:09;;;;;;;7.05;4.92;;;;;;;7.83;85.52;101440.06;1672665;81;27591;-77
2021/09/28 05:52:37;;;;;;;7.87;4.95;;;;;;;7.87;85.62;101449.95;1673758;82;25972;-77
2021/09/28 05:55:05;;;;;;;11.43;5.03;;;;;;;7.86;85.59;101450.44;1726210;81;25858;-77
2021/09/28 05:57:32;;;;;;;8.20;5.75;;;;;;;7.88;85.73;101453.80;1670006;81;26496;-77
2021/09/28 05:59:59;;;;;;;7.58;4.85;;;;;;;7.92;85.90;101453.84;1714980;82;25779;-77
2021/09/28 06:02:27;;;;;;;6.40;5.28;;;;;;;7.98;86.02;101451.06;1679310;83;28243;-77
2021/09/28 06:04:54;;;;;;;6.60;5.08;;;;;;;8.03;86.24;101452.31;1720551;83;25899;-77
2021/09/28 06:07:22;;;;;;;7.33;5.53;;;;;;;8.10;86.32;101452.55;1636625;84;25952;-77
2021/09/28 06:09:49;;;;;;;8.13;5.20;;;;;;;8.15;86.50;101456.44;1657805;83;26553;-77
2021/09/28 06:12:17;;;;;;;8.73;4.87;;;;;;;8.23;86.78;101461.86;1680495;83;25999;-77
2021/09/28 06:14:44;;;;;;;7.53;5.28;;;;;;;8.31;86.92;101458.00;1706217;83;27577;-77
2021/09/28 06:17:11;;;;;;;9.88;6.35;;;;;;;8.40;87.10;101462.92;1668985;83;26003;-77
2021/09/28 06:19:38;;;;;;;8.05;5.55;;;;;;;8.48;87.20;101464.33;1688247;83;25854;-77
2021/09/28 06:22:07;;;;;;;6.55;5.50;;;;;;;8.62;87.38;101469.64;1680518;81;25983;-77
2021/09/28 06:24:35;;;;;;;7.72;5.80;;;;;;;8.71;87.42;101473.55;1698878;83;25953;-76
2021/09/28 06:27:05;;;;;;;7.08;4.72;;;;;;;8.82;87.46;101482.67;1641059;84;28243;-76
2021/09/28 06:29:33;;;;;;;6.65;4.92;;;;;;;8.93;87.16;101483.77;1642550;84;26099;-77
2021/09/28 06:32:01;;;;;;;6.97;5.97;;;;;;;9.04;87.08;101484.87;1642481;83;25914;-77
2021/09/28 06:34:28;;;;;;;7.03;5.17;;;;;;;9.14;86.76;101489.62;1712337;83;25828;-77
2021/09/28 06:36:55;;;;;;;8.48;5.58;;;;;;;9.25;86.63;101492.04;1681228;83;26046;-77
2021/09/28 06:39:22;;;;;;;7.28;5.42;;;;;;;9.36;86.35;101499.45;1658410;84;28240;-77
2021/09/28 06:41:49;;;;;;;6.53;4.47;;;;;;;9.44;86.18;101490.98;1654461;83;25908;-77
2021/09/28 06:44:16;;;;;;;5.90;4.65;;;;;;;9.55;85.97;101496.56;1696249;83;25968;-77
2021/09/28 06:46:43;;;;;;;9.00;5.45;;;;;;;9.64;85.68;101498.30;1655407;83;26590;-76
2021/09/28 06:49:10;;;;;;;5.15;4.25;;;;;;;9.71;85.19;101492.66;1656624;83;25874;-77
2021/09/28 06:51:38;;;;;;;16.27;7.78;;;;;;;9.78;85.03;101495.86;1657662;83;28608;-77
2021/09/28 06:54:05;;;;;;;7.08;5.37;;;;;;;9.89;84.97;101509.45;1704142;83;25765;-77
2021/09/28 06:56:32;;;;;;;8.85;6.12;;;;;;;9.98;84.74;101505.83;1625084;84;25822;-77
2021/09/28 06:58:59;;;;;;;13.88;7.70;;;;;;;10.07;84.66;101510.22;1662725;82;25769;-77
2021/09/28 07:01:26;;;;;;;11.48;6.30;;;;;;;10.16;84.20;101507.92;1702845;80;25915;-77
2021/09/28 07:03:54;;;;;;;7.62;4.83;;;;;;;10.25;83.85;101510.97;1737926;80;28079;-78
2021/09/28 07:06:22;;;;;;;6.37;4.97;;;;;;;10.33;83.48;101510.17;1703843;81;25830;-78
2021/09/28 07:08:50;;;;;;;5.20;4.03;;;;;;;10.41;83.71;101505.68;1682610;83;25340;-77
2021/09/28 07:11:19;;;;;;;4.50;3.80;;;;;;;10.52;83.59;101509.36;1688993;80;25800;-77
2021/09/28 07:13:49;;;;;;;8.48;3.87;;;;;;;10.60;82.74;101510.74;1760510;80;25832;-77
2021/09/28 07:16:17;;;;;;;8.38;4.47;;;;;;;10.71;83.21;101513.08;1702708;81;27542;-77
2021/09/28 07:18:45;;;;;;;12.23;5.17;;;;;;;10.82;82.81;101514.11;1700897;80;25822;-77
2021/09/28 07:21:12;;;;;;;5.03;3.90;;;;;;;10.92;82.41;101513.11;1686718;81;25820;-77
2021/09/28 07:23:40;;;;;;;6.58;4.30;;;;;;;10.99;82.20;101510.92;1748089;80;25795;-77
2021/09/28 07:26:10;;;;;;;4.62;3.65;;;;;;;11.08;81.75;101513.95;1704248;80;25734;-77
2021/09/28 07:28:37;;;;;;;8.18;3.98;;;;;;;11.16;80.63;101517.15;1708614;82;27607;-77
2021/09/28 07:31:06;;;;;;;8.58;3.95;;;;;;;11.25;81.32;101522.81;1700614;80;25898;-77
2021/09/28 07:33:33;;;;;;;3.55;3.05;;;;;;;11.32;80.31;101520.66;1751330;80;25728;-77
2021/09/28 07:36:04;;;;;;;5.22;3.80;;;;;;;11.38;80.57;101519.97;1713122;80;26936;-77
2021/09/28 07:38:30;;;;;;;9.45;3.02;;;;;;;11.45;80.45;101520.12;1698382;81;25880;-77
2021/09/28 07:40:57;;;;;;;4.22;3.47;;;;;;;11.51;80.01;101517.61;1694337;81;28179;-77
2021/09/28 07:43:24;;;;;;;7.90;2.87;;;;;;;11.57;79.59;101525.46;1711872;81;25930;-78
2021/09/28 07:45:51;;;;;;;10.65;3.30;;;;;;;11.64;79.21;101523.78;1700664;80;26007;-77
2021/09/28 07:48:18;;;;;;;8.80;3.30;;;;;;;11.71;79.23;101528.84;1720390;81;25763;-77
2021/09/28 07:50:46;;;;;;;6.28;3.50;;;;;;;11.79;79.40;101532.84;1704712;81;25761;-77
2021/09/28 07:53:15;;;;;;;4.70;3.12;;;;;;;11.88;79.11;101527.78;1710732;80;28172;-78
2021/09/28 07:55:42;;;;;;;4.42;2.60;;;;;;;11.99;79.04;101529.26;1703366;80;25865;-78
2021/09/28 07:58:09;;;;;;;3.67;2.85;;;;;;;12.11;79.15;101529.20;1717774;81;25801;-77
2021/09/28 08:00:39;;;;;;;6.33;3.55;;;;;;;12.19;78.67;101531.84;1669287;83;26633;-78
2021/09/28 08:03:06;;;;;;;4.28;2.60;;;;;;;12.26;78.01;101524.27;1706003;83;25718;-77
2021/09/28 08:05:33;;;;;;;6.75;3.08;;;;;;;12.32;77.81;101530.78;1682796;83;28168;-77
2021/09/28 08:08:00;;;;;;;4.20;2.62;;;;;;;12.38;77.31;101522.86;1629269;83;25846;-77
2021/09/28 08:10:28;;;;;;;5.47;2.70;;;;;;;12.47;77.05;101527.69;1675177;83;25905;-77
2021/09/28 08:12:58;;;;;;;3.22;2.60;;;;;;;12.53;76.63;101522.94;1702978;82;26444;-77
2021/09/28 08:15:23;;;;;;;4.67;2.83;;;;;;;12.61;76.62;101532.33;1715769;83;26215;-78
2021/09/28 08:17:50;;;;;;;5.20;2.42;;;;;;;12.68;75.84;101531.92;1679161;83;27454;-78
2021/09/28 08:20:19;;;;;;;4.67;2.92;;;;;;;12.76;75.83;101533.73;1697673;82;25847;-77
2021/09/28 08:22:46;;;;;;;5.92;2.40;;;;;;;12.82;74.90;101534.36;1662959;84;26486;-77
2021/09/28 08:25:16;;;;;;;2.87;2.52;;;;;;;12.89;74.17;101531.30;1702142;83;25890;-77
2021/09/28 08:30:27;;;;;;;2.90;2.40;;;;;;;13.03;74.40;101535.88;1686139;83;27463;-78
2021/09/28 08:32:54;;;;;;;4.17;2.25;;;;;;;13.13;73.68;101541.38;1686188;83;25786;-77
2021/09/28 08:35:22;;;;;;;4.05;2.00;;;;;;;13.18;73.07;101542.19;1712518;83;26549;-78
2021/09/28 08:37:49;;;;;;;6.22;1.95;;;;;;;13.28;72.62;101545.98;1660336;83;25883;-77
2021/09/28 08:40:18;;;;;;;3.50;2.58;;;;;;;13.37;73.26;101538.15;1661311;83;25808;-78
2021/09/28 08:42:46;;;;;;;6.12;2.08;;;;;;;13.49;72.16;101540.75;1700097;83;27609;-78
2021/09/28 08:45:13;;;;;;;2.45;1.98;;;;;;;13.58;72.00;101539.13;1693430;83;25809;-78
2021/09/28 08:47:44;;;;;;;5.60;2.45;;;;;;;13.66;71.42;101543.61;1625663;83;26027;-78
2021/09/28 08:50:21;;;;;;;6.35;2.40;;;;;;;13.73;71.65;101548.56;1685761;83;26489;-78
2021/09/28 08:52:51;;;;;;;3.35;1.95;;;;;;;13.79;70.42;101545.16;1671825;83;26310;-78
2021/09/28 08:55:18;;;;;;;2.77;2.00;;;;;;;13.88;71.31;101546.72;1684169;83;28235;-77
2021/09/28 08:57:45;;;;;;;2.83;2.08;;;;;;;14.00;70.80;101548.45;1629180;83;26468;-78
2021/09/28 09:00:22;;;;;;;3.67;1.80;;;;;;;14.08;69.45;101545.66;1654339;81;26552;-78
2021/09/28 09:02:49;;;;;;;4.50;1.95;;;;;;;14.14;69.32;101543.55;1749236;80;25842;-78
2021/09/28 09:05:17;;;;;;;2.50;1.90;;;;;;;14.17;69.21;101541.84;1755353;80;25916;-78
2021/09/28 09:08:01;;;;;;;4.62;2.00;;;;;;;14.25;69.88;101545.78;1697055;80;27410;-78
2021/09/28 09:10:32;;;;;;;2.15;1.90;;;;;;;14.33;69.07;101541.66;1744812;80;25747;-78
2021/09/28 09:13:00;;;;;;;3.35;1.95;;;;;;;14.40;69.97;101541.23;1732518;80;25950;-78
2021/09/28 09:15:31;;;;;;;2.98;1.62;;;;;;;14.48;68.29;101539.77;1733907;81;26494;-78
2021/09/28 09:18:05;;;;;;;2.72;1.67;;;;;;;14.51;68.50;101544.80;1686521;82;25854;-78
2021/09/28 09:20:37;;;;;;;5.92;1.90;;;;;;;14.52;68.05;101541.09;1689411;81;27518;-78
2021/09/28 09:23:28;;;;;;;4.97;1.92;;;;;;;14.56;67.77;101539.69;1721372;81;25987;-78
2021/09/28 09:26:12;;;;;;;2.30;2.10;;;;;;;14.66;66.89;101538.36;1746235;80;25818;-78
2021/09/28 09:28:46;;;;;;;1.98;1.65;;;;;;;14.72;67.10;101543.48;1723543;80;26389;-78
2021/09/28 09:31:34;;;;;;;3.27;1.67;;;;;;;14.81;67.46;101541.00;1709921;80;25886;-77
2021/09/28 09:34:15;;;;;;;2.62;1.80;;;;;;;14.90;67.43;101534.97;1723572;80;27500;-77
2021/09/28 09:36:43;;;;;;;;;;;;;;;14.97;66.37;101533.18;1720375;81;26296;-78
2021/09/28 09:39:11;;;;;;;2.65;1.70;;;;;;;15.07;67.54;101534.53;1693053;81;26597;-78
2021/09/28 09:41:40;;;;;;;3.30;2.00;;;;;;;15.14;67.28;101538.10;1730455;80;25941;-77
2021/09/28 09:44:15;;;;;;;7.62;4.90;;;;;;;15.20;66.95;101538.70;1716905;81;25918;-77
2021/09/28 09:46:50;;;;;;;3.60;2.12;;;;;;;15.22;65.88;101545.24;1707191;80;26897;-78
2021/09/28 09:49:24;;;;;;;4.58;2.25;;;;;;;15.24;66.03;101535.09;1704473;81;25863;-78
2021/09/28 09:51:55;;;;;;;3.30;2.00;;;;;;;15.30;65.68;101541.89;1713875;81;25326;-78
2021/09/28 09:54:33;;;;;;;2.30;1.47;;;;;;;15.33;64.87;101537.44;1719243;81;26800;-78
2021/09/28 09:57:08;;;;;;;4.17;1.70;;;;;;;15.40;64.70;101545.09;1692094;81;25793;-78
2021/09/28 09:59:33;;;;;;;3.52;1.98;;;;;;;15.46;64.57;101541.33;1701105;82;27914;-78
2021/09/28 10:02:00;;;;;;;6.83;3.10;;;;;;;15.51;64.63;101544.26;1669285;81;25814;-78
2021/09/28 10:04:27;;;;;;;2.47;1.70;;;;;;;15.56;65.84;101539.11;1708173;81;25857;-78
2021/09/28 10:06:55;;;;;;;4.65;1.70;;;;;;;15.62;64.41;101543.72;1744194;80;25944;-78
2021/09/28 10:09:35;;;;;;;4.05;1.70;;;;;;;15.63;64.21;101542.17;1699131;80;25856;-78
2021/09/28 10:12:07;;;;;;;3.17;1.85;;;;;;;15.69;61.96;101548.67;1723547;80;27568;-78
2021/09/28 10:14:43;;;;;;;3.17;1.65;;;;;;;15.71;62.83;101546.60;1722138;81;25886;-78
2021/09/28 10:17:34;;;;;;;3.77;1.92;;;;;;;15.70;62.35;101543.06;1745004;80;26599;-78
2021/09/28 10:20:02;;;;;;;1.60;1.27;;;;;;;15.70;62.55;101544.41;1719955;80;26105;-77
2021/09/28 10:25:34;;;;;;;2.67;1.57;;;;;;;15.78;63.03;101540.20;1742817;80;28200;-76
2021/09/28 10:28:09;;;;;;;4.35;1.95;;;;;;;15.82;62.53;101536.09;1736371;81;25851;-78
2021/09/28 10:30:42;;;;;;;3.37;2.17;;;;;;;15.87;63.89;101543.07;1701649;81;25824;-76
2021/09/28 10:33:26;;;;;;;2.50;2.02;;;;;;;15.91;63.43;101540.83;1717408;81;26500;-77
2021/09/28 10:36:01;;;;;;;2.17;1.90;;;;;;;15.97;63.42;101538.67;1724689;81;25883;-77
2021/09/28 10:38:46;;;;;;;2.83;1.52;;;;;;;16.02;63.02;101540.24;1723239;80;27677;-77
2021/09/28 10:41:35;;;;;;;3.47;2.75;;;;;;;16.06;62.22;101541.00;1722820;80;26638;-76
2021/09/28 10:44:37;;;;;;;4.12;1.82;;;;;;;16.11;61.28;101544.45;1706450;82;25966;-77
2021/09/28 10:47:02;;;;;;;3.22;1.60;;;;;;;16.08;62.13;101545.69;1651094;85;25828;-78
2021/09/28 10:49:32;;;;;;;1.55;1.42;;;;;;;16.08;62.77;101542.98;1668023;85;25998;-77
2021/09/28 10:52:25;;;;;;;8.38;2.25;;;;;;;16.15;63.31;101543.86;1678358;80;27446;-77
2021/09/28 10:55:13;;;;;;;3.10;2.80;;;;;;;16.21;62.74;101536.30;1786088;78;26469;-77
2021/09/28 10:58:04;;;;;;;2.83;1.65;;;;;;;16.27;62.02;101533.84;1758894;80;25721;-77
2021/09/28 11:00:42;;;;;;;6.10;1.82;;;;;;;16.29;62.33;101540.72;1729577;80;25950;-77
2021/09/28 11:03:11;;;;;;;3.35;2.00;;;;;;;16.31;61.92;101535.94;1747540;80;26427;-77
2021/09/28 11:05:42;;;;;;;3.05;2.20;;;;;;;16.36;62.13;101536.69;1703895;81;28220;-77
2021/09/28 11:08:12;;;;;;;3.55;2.15;;;;;;;16.38;61.16;101525.97;1744209;80;25809;-77
2021/09/28 11:10:39;;;;;;;3.47;1.70;;;;;;;16.43;62.13;101533.48;1725766;80;25752;-78
2021/09/28 11:13:12;;;;;;;2.27;2.08;;;;;;;16.45;58.82;101525.48;1698944;81;25935;-77
2021/09/28 11:15:39;;;;;;;6.37;2.22;;;;;;;16.50;60.70;101531.16;1704212;81;26194;-78
2021/09/28 11:18:13;;;;;;;4.08;1.98;;;;;;;16.52;60.88;101529.59;1731957;81;27630;-77
2021/09/28 11:20:42;;;;;;;3.85;1.85;;;;;;;16.53;61.59;101528.58;1702247;82;25313;-77
2021/09/28 11:23:12;;;;;;;3.40;2.00;;;;;;;16.55;61.09;101528.66;1669029;81;25890;-77
2021/09/28 11:25:52;;;;;;;3.62;1.65;;;;;;;16.57;61.19;101527.94;1690160;81;25962;-77
2021/09/28 11:28:24;;;;;;;3.05;2.60;;;;;;;16.57;60.68;101513.06;1744529;80;25347;-77
2021/09/28 11:31:01;;;;;;;2.25;1.90;;;;;;;16.61;60.02;101521.63;1727072;81;28136;-77
2021/09/28 11:33:40;;;;;;;6.00;3.00;;;;;;;16.67;60.33;101522.99;1722238;81;25864;-76
2021/09/28 11:36:11;;;;;;;4.53;2.83;;;;;;;16.69;59.92;101520.08;1713862;81;25964;-77
2021/09/28 11:38:48;;;;;;;4.85;3.85;;;;;;;16.67;59.90;101517.58;1742458;81;26419;-77
2021/09/28 11:41:18;;;;;;;6.62;4.03;;;;;;;16.64;60.40;101519.84;1711747;82;25890;-77
2021/09/28 11:43:58;;;;;;;4.90;2.85;;;;;;;16.64;59.94;101517.14;1739600;81;33688;-78